sensor_id;sensor_type;location;lat;lon;timestamp;temperature;humidity
40077;DHT22;25777;47.824;18.982;2023-08-31T00:07:33;15.60;99.90
40077;DHT22;25777;47.824;18.982;2023-08-31T00:10:01;15.60;99.90
40077;DHT22;25777;47.824;18.982;2023-08-31T00:12:46;15.50;99.90
40077;DHT22;25777;47.824;18.982;2023-08-31T00:15:12;15.40;99.90
40077;DHT22;25777;47.824;18.982;2023-08-31T00:17:45;15.40;99.90
40077;DHT22;25777;47.824;18.982;2023-08-31T00:20:11;15.30;99.90
40077;DHT22;25777;47.824;18.982;2023-08-31T00:22:38;15.40;99.90
40077;DHT22;25777;47.824;18.982;2023-08-31T00:25:06;15.40;99.90
40077;DHT22;25777;47.824;18.982;2023-08-31T00:27:35;15.40;99.90
40077;DHT22;25777;47.824;18.982;2023-08-31T00:30:04;15.50;99.90
40077;DHT22;25777;47.824;18.982;2023-08-31T00:32:32;15.50;99.90
40077;DHT22;25777;47.824;18.982;2023-08-31T00:34:59;15.40;99.90
40077;DHT22;25777;47.824;18.982;2023-08-31T00:37:25;15.50;99.90
40077;DHT22;25777;47.824;18.982;2023-08-31T00:39:53;15.50;99.90
40077;DHT22;25777;47.824;18.982;2023-08-31T00:44:50;15.50;99.90
40077;DHT22;25777;47.824;18.982;2023-08-31T00:47:28;15.50;99.90
40077;DHT22;25777;47.824;18.982;2023-08-31T00:49:55;15.50;99.90
40077;DHT22;25777;47.824;18.982;2023-08-31T00:52:27;15.60;99.90
40077;DHT22;25777;47.824;18.982;2023-08-31T00:57:25;15.50;99.90
40077;DHT22;25777;47.824;18.982;2023-08-31T01:00:01;15.50;99.90
40077;DHT22;25777;47.824;18.982;2023-08-31T01:07:58;15.50;99.90
40077;DHT22;25777;47.824;18.982;2023-08-31T01:10:51;15.50;99.90
40077;DHT22;25777;47.824;18.982;2023-08-31T01:19:08;15.40;99.90
40077;DHT22;25777;47.824;18.982;2023-08-31T01:21:37;15.50;99.90
40077;DHT22;25777;47.824;18.982;2023-08-31T01:24:05;15.50;99.90
40077;DHT22;25777;47.824;18.982;2023-08-31T01:26:34;15.40;99.90
40077;DHT22;25777;47.824;18.982;2023-08-31T01:31:32;15.40;99.90
40077;DHT22;25777;47.824;18.982;2023-08-31T01:34:01;15.30;99.90
40077;DHT22;25777;47.824;18.982;2023-08-31T01:39:26;15.30;99.90
40077;DHT22;25777;47.824;18.982;2023-08-31T01:44:24;15.20;99.90
40077;DHT22;25777;47.824;18.982;2023-08-31T01:47:09;15.30;99.90
40077;DHT22;25777;47.824;18.982;2023-08-31T01:49:41;15.30;99.90
40077;DHT22;25777;47.824;18.982;2023-08-31T01:54:42;15.30;99.90
40077;DHT22;25777;47.824;18.982;2023-08-31T01:57:20;15.20;99.90
40077;DHT22;25777;47.824;18.982;2023-08-31T01:59:57;15.30;99.90
40077;DHT22;25777;47.824;18.982;2023-08-31T02:02:23;15.30;99.90
40077;DHT22;25777;47.824;18.982;2023-08-31T02:04:48;15.30;99.90
40077;DHT22;25777;47.824;18.982;2023-08-31T02:07:16;15.30;99.90
40077;DHT22;25777;47.824;18.982;2023-08-31T02:12:34;15.30;99.90
40077;DHT22;25777;47.824;18.982;2023-08-31T02:15:08;15.20;99.90
40077;DHT22;25777;47.824;18.982;2023-08-31T02:17:48;15.20;99.90
40077;DHT22;25777;47.824;18.982;2023-08-31T02:20:16;15.20;99.90
40077;DHT22;25777;47.824;18.982;2023-08-31T02:22:55;15.10;99.90
40077;DHT22;25777;47.824;18.982;2023-08-31T02:25:21;15.10;99.90
40077;DHT22;25777;47.824;18.982;2023-08-31T02:27:47;15.20;99.90
40077;DHT22;25777;47.824;18.982;2023-08-31T02:30:15;15.20;99.90
40077;DHT22;25777;47.824;18.982;2023-08-31T02:35:13;15.20;99.90
40077;DHT22;25777;47.824;18.982;2023-08-31T02:42:56;15.20;99.90
40077;DHT22;25777;47.824;18.982;2023-08-31T02:45:22;15.10;99.90
40077;DHT22;25777;47.824;18.982;2023-08-31T02:50:37;15.10;99.90
40077;DHT22;25777;47.824;18.982;2023-08-31T02:58:48;15.00;99.90
40077;DHT22;25777;47.824;18.982;2023-08-31T03:01:23;15.10;99.90
40077;DHT22;25777;47.824;18.982;2023-08-31T03:03:56;15.20;99.90
40077;DHT22;25777;47.824;18.982;2023-08-31T03:06:25;15.20;99.90
40077;DHT22;25777;47.824;18.982;2023-08-31T03:08:51;15.20;99.90
40077;DHT22;25777;47.824;18.982;2023-08-31T03:11:34;15.20;99.90
40077;DHT22;25777;47.824;18.982;2023-08-31T03:14:01;15.20;99.90
40077;DHT22;25777;47.824;18.982;2023-08-31T03:16:27;15.10;99.90
40077;DHT22;25777;47.824;18.982;2023-08-31T03:21:53;15.00;99.90
40077;DHT22;25777;47.824;18.982;2023-08-31T03:26:49;15.00;99.90
40077;DHT22;25777;47.824;18.982;2023-08-31T03:31:57;14.90;99.90
40077;DHT22;25777;47.824;18.982;2023-08-31T03:34:23;14.90;99.90
40077;DHT22;25777;47.824;18.982;2023-08-31T03:36:54;15.00;99.90
40077;DHT22;25777;47.824;18.982;2023-08-31T03:47:37;15.00;99.90
40077;DHT22;25777;47.824;18.982;2023-08-31T03:50:04;15.00;99.90
40077;DHT22;25777;47.824;18.982;2023-08-31T03:52:41;14.90;99.90
40077;DHT22;25777;47.824;18.982;2023-08-31T03:58:09;14.90;99.90
40077;DHT22;25777;47.824;18.982;2023-08-31T04:00:52;14.90;99.90
40077;DHT22;25777;47.824;18.982;2023-08-31T04:08:37;14.80;99.90
40077;DHT22;25777;47.824;18.982;2023-08-31T04:11:03;14.80;99.90
40077;DHT22;25777;47.824;18.982;2023-08-31T04:13:28;14.70;99.90
40077;DHT22;25777;47.824;18.982;2023-08-31T04:15:54;14.50;99.90
40077;DHT22;25777;47.824;18.982;2023-08-31T04:21:10;14.60;99.90
40077;DHT22;25777;47.824;18.982;2023-08-31T04:23:37;14.70;99.90
40077;DHT22;25777;47.824;18.982;2023-08-31T04:26:09;14.60;99.90
40077;DHT22;25777;47.824;18.982;2023-08-31T04:28:36;14.70;99.90
40077;DHT22;25777;47.824;18.982;2023-08-31T04:31:15;14.70;99.90
40077;DHT22;25777;47.824;18.982;2023-08-31T04:36:12;14.80;99.90
40077;DHT22;25777;47.824;18.982;2023-08-31T04:38:38;14.80;99.90
40077;DHT22;25777;47.824;18.982;2023-08-31T04:41:06;14.80;99.90
40077;DHT22;25777;47.824;18.982;2023-08-31T04:46:39;14.70;99.90
40077;DHT22;25777;47.824;18.982;2023-08-31T04:49:23;14.80;99.90
40077;DHT22;25777;47.824;18.982;2023-08-31T05:00:07;15.10;99.90
40077;DHT22;25777;47.824;18.982;2023-08-31T05:02:37;15.20;99.90
40077;DHT22;25777;47.824;18.982;2023-08-31T05:05:03;15.10;99.90
40077;DHT22;25777;47.824;18.982;2023-08-31T05:10:44;15.30;99.90
40077;DHT22;25777;47.824;18.982;2023-08-31T05:18:39;15.40;99.90
40077;DHT22;25777;47.824;18.982;2023-08-31T05:23:57;15.20;99.90
40077;DHT22;25777;47.824;18.982;2023-08-31T05:26:25;15.20;99.90
40077;DHT22;25777;47.824;18.982;2023-08-31T05:28:52;15.30;99.90
40077;DHT22;25777;47.824;18.982;2023-08-31T05:37:06;15.30;99.90
40077;DHT22;25777;47.824;18.982;2023-08-31T05:50:54;15.60;99.90
40077;DHT22;25777;47.824;18.982;2023-08-31T05:53:25;15.70;99.90
40077;DHT22;25777;47.824;18.982;2023-08-31T05:55:58;15.70;99.90
40077;DHT22;25777;47.824;18.982;2023-08-31T05:58:33;15.70;99.90
40077;DHT22;25777;47.824;18.982;2023-08-31T06:01:01;15.70;99.90
40077;DHT22;25777;47.824;18.982;2023-08-31T06:03:27;15.80;99.90
40077;DHT22;25777;47.824;18.982;2023-08-31T06:08:37;15.90;99.90
40077;DHT22;25777;47.824;18.982;2023-08-31T06:14:05;15.90;99.90
40077;DHT22;25777;47.824;18.982;2023-08-31T06:22:34;16.00;99.90
40077;DHT22;25777;47.824;18.982;2023-08-31T06:28:10;16.10;99.90
40077;DHT22;25777;47.824;18.982;2023-08-31T06:30:42;16.20;99.90
40077;DHT22;25777;47.824;18.982;2023-08-31T06:41:29;16.50;99.90
40077;DHT22;25777;47.824;18.982;2023-08-31T06:43:57;16.50;99.90
40077;DHT22;25777;47.824;18.982;2023-08-31T06:46:23;16.50;99.90
40077;DHT22;25777;47.824;18.982;2023-08-31T06:51:25;16.60;99.90
40077;DHT22;25777;47.824;18.982;2023-08-31T06:54:01;16.60;99.90
40077;DHT22;25777;47.824;18.982;2023-08-31T06:56:46;16.80;99.90
40077;DHT22;25777;47.824;18.982;2023-08-31T06:59:30;16.80;99.90
40077;DHT22;25777;47.824;18.982;2023-08-31T07:02:10;16.80;99.90
40077;DHT22;25777;47.824;18.982;2023-08-31T07:10:09;16.90;99.90
40077;DHT22;25777;47.824;18.982;2023-08-31T07:12:53;16.90;99.90
40077;DHT22;25777;47.824;18.982;2023-08-31T07:15:24;17.00;99.90
40077;DHT22;25777;47.824;18.982;2023-08-31T07:17:50;17.10;99.90
40077;DHT22;25777;47.824;18.982;2023-08-31T07:20:22;17.20;99.90
40077;DHT22;25777;47.824;18.982;2023-08-31T07:22:51;17.40;99.90
40077;DHT22;25777;47.824;18.982;2023-08-31T07:25:18;17.40;99.90
40077;DHT22;25777;47.824;18.982;2023-08-31T07:27:44;17.50;99.90
40077;DHT22;25777;47.824;18.982;2023-08-31T07:32:40;17.70;99.90
40077;DHT22;25777;47.824;18.982;2023-08-31T07:35:22;17.90;99.90
40077;DHT22;25777;47.824;18.982;2023-08-31T07:40:17;18.10;99.90
40077;DHT22;25777;47.824;18.982;2023-08-31T07:42:54;18.20;99.90
40077;DHT22;25777;47.824;18.982;2023-08-31T07:48:23;18.40;99.90
40077;DHT22;25777;47.824;18.982;2023-08-31T07:50:50;18.50;99.90
40077;DHT22;25777;47.824;18.982;2023-08-31T07:56:07;18.70;99.90
40077;DHT22;25777;47.824;18.982;2023-08-31T07:58:33;18.70;99.90
40077;DHT22;25777;47.824;18.982;2023-08-31T08:00:59;18.70;99.90
40077;DHT22;25777;47.824;18.982;2023-08-31T08:03:25;18.80;99.90
40077;DHT22;25777;47.824;18.982;2023-08-31T08:05:56;18.70;99.90
40077;DHT22;25777;47.824;18.982;2023-08-31T08:08:30;18.70;99.90
40077;DHT22;25777;47.824;18.982;2023-08-31T08:10:56;18.80;99.90
40077;DHT22;25777;47.824;18.982;2023-08-31T08:13:23;18.80;99.90
40077;DHT22;25777;47.824;18.982;2023-08-31T08:18:30;18.70;99.90
40077;DHT22;25777;47.824;18.982;2023-08-31T08:20:59;18.70;99.90
40077;DHT22;25777;47.824;18.982;2023-08-31T08:23:26;18.80;99.90
40077;DHT22;25777;47.824;18.982;2023-08-31T08:25:55;18.90;99.90
40077;DHT22;25777;47.824;18.982;2023-08-31T08:30:52;19.00;99.90
40077;DHT22;25777;47.824;18.982;2023-08-31T08:33:26;18.90;99.90
40077;DHT22;25777;47.824;18.982;2023-08-31T08:38:53;18.80;99.90
40077;DHT22;25777;47.824;18.982;2023-08-31T08:41:23;18.80;99.90
40077;DHT22;25777;47.824;18.982;2023-08-31T08:43:50;18.80;99.90
40077;DHT22;25777;47.824;18.982;2023-08-31T08:46:16;18.80;99.90
40077;DHT22;25777;47.824;18.982;2023-08-31T08:48:44;18.90;99.90
40077;DHT22;25777;47.824;18.982;2023-08-31T08:51:13;19.00;99.90
40077;DHT22;25777;47.824;18.982;2023-08-31T08:56:42;18.90;99.90
40077;DHT22;25777;47.824;18.982;2023-08-31T09:02:11;18.90;99.90
40077;DHT22;25777;47.824;18.982;2023-08-31T09:04:39;18.90;99.90
40077;DHT22;25777;47.824;18.982;2023-08-31T09:09:47;19.10;99.90
40077;DHT22;25777;47.824;18.982;2023-08-31T09:12:29;19.10;99.90
40077;DHT22;25777;47.824;18.982;2023-08-31T09:14:59;19.20;99.90
40077;DHT22;25777;47.824;18.982;2023-08-31T09:20:12;19.20;99.90
40077;DHT22;25777;47.824;18.982;2023-08-31T09:22:44;19.20;99.90
40077;DHT22;25777;47.824;18.982;2023-08-31T09:27:40;19.20;99.90
40077;DHT22;25777;47.824;18.982;2023-08-31T09:30:08;19.30;99.90
40077;DHT22;25777;47.824;18.982;2023-08-31T09:32:41;19.30;99.90
40077;DHT22;25777;47.824;18.982;2023-08-31T09:35:11;19.40;99.90
40077;DHT22;25777;47.824;18.982;2023-08-31T09:40:09;19.50;99.90
40077;DHT22;25777;47.824;18.982;2023-08-31T09:45:12;19.70;99.90
40077;DHT22;25777;47.824;18.982;2023-08-31T09:47:38;19.80;99.90
40077;DHT22;25777;47.824;18.982;2023-08-31T09:52:34;20.30;99.90
40077;DHT22;25777;47.824;18.982;2023-08-31T09:55:01;20.50;99.90
40077;DHT22;25777;47.824;18.982;2023-08-31T09:57:38;20.70;99.90
40077;DHT22;25777;47.824;18.982;2023-08-31T10:00:05;20.90;99.90
40077;DHT22;25777;47.824;18.982;2023-08-31T10:07:34;21.10;99.90
40077;DHT22;25777;47.824;18.982;2023-08-31T10:10:04;21.20;99.90
40077;DHT22;25777;47.824;18.982;2023-08-31T10:12:30;21.00;99.90
40077;DHT22;25777;47.824;18.982;2023-08-31T10:15:02;21.10;99.90
40077;DHT22;25777;47.824;18.982;2023-08-31T10:28:24;23.20;96.70
40077;DHT22;25777;47.824;18.982;2023-08-31T10:36:40;23.10;93.90
40077;DHT22;25777;47.824;18.982;2023-08-31T10:41:55;22.70;95.50
40077;DHT22;25777;47.824;18.982;2023-08-31T10:44:27;22.50;94.50
40077;DHT22;25777;47.824;18.982;2023-08-31T10:46:53;22.40;97.60
40077;DHT22;25777;47.824;18.982;2023-08-31T10:52:20;22.60;95.40
40077;DHT22;25777;47.824;18.982;2023-08-31T10:55:03;22.60;95.40
40077;DHT22;25777;47.824;18.982;2023-08-31T10:57:31;22.60;94.40
40077;DHT22;25777;47.824;18.982;2023-08-31T10:59:58;22.80;93.80
40077;DHT22;25777;47.824;18.982;2023-08-31T11:05:15;23.30;93.40
40077;DHT22;25777;47.824;18.982;2023-08-31T11:07:41;23.50;93.40
40077;DHT22;25777;47.824;18.982;2023-08-31T11:12:39;24.00;89.90
40077;DHT22;25777;47.824;18.982;2023-08-31T11:15:15;23.70;85.90
40077;DHT22;25777;47.824;18.982;2023-08-31T11:17:44;23.70;89.10
40077;DHT22;25777;47.824;18.982;2023-08-31T11:20:17;23.30;90.80
40077;DHT22;25777;47.824;18.982;2023-08-31T11:25:18;22.80;91.40
40077;DHT22;25777;47.824;18.982;2023-08-31T11:27:53;22.70;90.50
40077;DHT22;25777;47.824;18.982;2023-08-31T11:30:19;22.70;89.30
40077;DHT22;25777;47.824;18.982;2023-08-31T11:32:50;22.70;89.60
40077;DHT22;25777;47.824;18.982;2023-08-31T11:38:08;22.60;84.80
40077;DHT22;25777;47.824;18.982;2023-08-31T11:40:34;22.50;84.40
40077;DHT22;25777;47.824;18.982;2023-08-31T11:43:00;22.60;85.90
40077;DHT22;25777;47.824;18.982;2023-08-31T11:45:27;22.80;85.60
40077;DHT22;25777;47.824;18.982;2023-08-31T11:47:53;22.90;83.50
40077;DHT22;25777;47.824;18.982;2023-08-31T11:50:20;22.70;82.00
40077;DHT22;25777;47.824;18.982;2023-08-31T11:52:48;22.80;84.60
40077;DHT22;25777;47.824;18.982;2023-08-31T11:55:15;22.70;83.10
40077;DHT22;25777;47.824;18.982;2023-08-31T11:57:52;22.80;85.50
40077;DHT22;25777;47.824;18.982;2023-08-31T12:00:21;22.90;87.90
40077;DHT22;25777;47.824;18.982;2023-08-31T12:02:58;22.90;90.70
40077;DHT22;25777;47.824;18.982;2023-08-31T12:10:43;22.90;86.10
40077;DHT22;25777;47.824;18.982;2023-08-31T12:13:13;23.10;86.20
40077;DHT22;25777;47.824;18.982;2023-08-31T12:15:38;23.30;81.40
40077;DHT22;25777;47.824;18.982;2023-08-31T12:18:08;23.10;78.20
40077;DHT22;25777;47.824;18.982;2023-08-31T12:20:44;22.90;79.80
40077;DHT22;25777;47.824;18.982;2023-08-31T12:23:12;22.80;79.60
40077;DHT22;25777;47.824;18.982;2023-08-31T12:25:53;22.70;80.30
40077;DHT22;25777;47.824;18.982;2023-08-31T12:30:54;22.60;81.10
40077;DHT22;25777;47.824;18.982;2023-08-31T12:35:56;22.40;81.00
40077;DHT22;25777;47.824;18.982;2023-08-31T12:48:52;22.50;82.20
40077;DHT22;25777;47.824;18.982;2023-08-31T12:54:14;22.70;80.20
40077;DHT22;25777;47.824;18.982;2023-08-31T12:56:40;22.70;80.80
40077;DHT22;25777;47.824;18.982;2023-08-31T12:59:08;22.90;79.00
40077;DHT22;25777;47.824;18.982;2023-08-31T13:04:36;23.00;79.50
40077;DHT22;25777;47.824;18.982;2023-08-31T13:07:09;23.00;77.60
40077;DHT22;25777;47.824;18.982;2023-08-31T13:09:36;22.90;78.70
40077;DHT22;25777;47.824;18.982;2023-08-31T13:12:04;22.70;78.40
40077;DHT22;25777;47.824;18.982;2023-08-31T13:14:35;22.80;80.20
40077;DHT22;25777;47.824;18.982;2023-08-31T13:17:02;23.50;82.10
40077;DHT22;25777;47.824;18.982;2023-08-31T13:19:36;24.10;79.10
40077;DHT22;25777;47.824;18.982;2023-08-31T13:27:18;24.50;77.30
40077;DHT22;25777;47.824;18.982;2023-08-31T13:29:44;25.00;75.60
40077;DHT22;25777;47.824;18.982;2023-08-31T13:32:11;25.00;79.80
40077;DHT22;25777;47.824;18.982;2023-08-31T13:34:37;24.70;76.60
40077;DHT22;25777;47.824;18.982;2023-08-31T13:37:03;25.20;73.40
40077;DHT22;25777;47.824;18.982;2023-08-31T13:42:20;25.40;73.30
40077;DHT22;25777;47.824;18.982;2023-08-31T13:47:15;24.80;72.80
40077;DHT22;25777;47.824;18.982;2023-08-31T13:49:42;24.80;72.10
40077;DHT22;25777;47.824;18.982;2023-08-31T13:52:10;24.70;72.40
40077;DHT22;25777;47.824;18.982;2023-08-31T13:54:37;25.20;71.40
40077;DHT22;25777;47.824;18.982;2023-08-31T13:57:06;24.70;69.30
40077;DHT22;25777;47.824;18.982;2023-08-31T13:59:42;24.90;72.70
40077;DHT22;25777;47.824;18.982;2023-08-31T14:02:16;24.50;77.20
40077;DHT22;25777;47.824;18.982;2023-08-31T14:04:41;24.20;75.90
40077;DHT22;25777;47.824;18.982;2023-08-31T14:07:14;24.60;77.10
40077;DHT22;25777;47.824;18.982;2023-08-31T14:09:47;24.60;78.70
40077;DHT22;25777;47.824;18.982;2023-08-31T14:12:19;24.70;76.40
40077;DHT22;25777;47.824;18.982;2023-08-31T14:14:49;24.60;72.70
40077;DHT22;25777;47.824;18.982;2023-08-31T14:17:16;24.80;73.40
40077;DHT22;25777;47.824;18.982;2023-08-31T14:19:48;24.50;71.40
40077;DHT22;25777;47.824;18.982;2023-08-31T14:22:23;24.40;71.50
40077;DHT22;25777;47.824;18.982;2023-08-31T14:32:17;24.30;74.80
40077;DHT22;25777;47.824;18.982;2023-08-31T14:34:43;24.00;75.50
40077;DHT22;25777;47.824;18.982;2023-08-31T14:37:17;23.70;74.40
40077;DHT22;25777;47.824;18.982;2023-08-31T14:39:43;23.50;74.40
40077;DHT22;25777;47.824;18.982;2023-08-31T14:47:30;23.40;79.30
40077;DHT22;25777;47.824;18.982;2023-08-31T14:49:55;23.30;77.90
40077;DHT22;25777;47.824;18.982;2023-08-31T14:52:21;23.30;78.60
40077;DHT22;25777;47.824;18.982;2023-08-31T14:54:51;23.10;79.30
40077;DHT22;25777;47.824;18.982;2023-08-31T14:57:27;22.90;81.20
40077;DHT22;25777;47.824;18.982;2023-08-31T14:59:54;22.80;80.20
40077;DHT22;25777;47.824;18.982;2023-08-31T15:02:20;22.60;82.40
40077;DHT22;25777;47.824;18.982;2023-08-31T15:04:49;22.40;84.40
40077;DHT22;25777;47.824;18.982;2023-08-31T15:07:23;22.50;78.90
40077;DHT22;25777;47.824;18.982;2023-08-31T15:09:52;22.50;80.50
40077;DHT22;25777;47.824;18.982;2023-08-31T15:12:19;22.40;79.70
40077;DHT22;25777;47.824;18.982;2023-08-31T15:14:52;22.30;78.60
40077;DHT22;25777;47.824;18.982;2023-08-31T15:17:18;22.10;80.50
40077;DHT22;25777;47.824;18.982;2023-08-31T15:19:47;22.00;81.10
40077;DHT22;25777;47.824;18.982;2023-08-31T15:22:15;22.00;85.30
40077;DHT22;25777;47.824;18.982;2023-08-31T15:24:42;22.00;90.60
40077;DHT22;25777;47.824;18.982;2023-08-31T15:27:19;21.90;84.90
40077;DHT22;25777;47.824;18.982;2023-08-31T15:29:46;21.90;88.30
40077;DHT22;25777;47.824;18.982;2023-08-31T15:32:12;21.70;87.00
40077;DHT22;25777;47.824;18.982;2023-08-31T15:34:38;21.70;85.40
40077;DHT22;25777;47.824;18.982;2023-08-31T15:37:10;21.90;84.00
40077;DHT22;25777;47.824;18.982;2023-08-31T15:39:43;21.90;84.00
40077;DHT22;25777;47.824;18.982;2023-08-31T15:42:15;22.00;82.50
40077;DHT22;25777;47.824;18.982;2023-08-31T15:44:45;21.80;84.80
40077;DHT22;25777;47.824;18.982;2023-08-31T15:47:11;21.90;84.20
40077;DHT22;25777;47.824;18.982;2023-08-31T15:49:37;21.80;83.10
40077;DHT22;25777;47.824;18.982;2023-08-31T15:52:12;21.80;84.00
40077;DHT22;25777;47.824;18.982;2023-08-31T15:54:41;21.70;85.80
40077;DHT22;25777;47.824;18.982;2023-08-31T15:57:25;21.60;84.90
40077;DHT22;25777;47.824;18.982;2023-08-31T16:00:03;21.50;85.90
40077;DHT22;25777;47.824;18.982;2023-08-31T16:02:38;21.50;86.40
40077;DHT22;25777;47.824;18.982;2023-08-31T16:05:16;21.40;86.20
40077;DHT22;25777;47.824;18.982;2023-08-31T16:07:52;21.40;85.40
40077;DHT22;25777;47.824;18.982;2023-08-31T16:10:18;21.30;88.70
40077;DHT22;25777;47.824;18.982;2023-08-31T16:12:45;21.20;85.80
40077;DHT22;25777;47.824;18.982;2023-08-31T16:15:11;21.20;87.70
40077;DHT22;25777;47.824;18.982;2023-08-31T16:17:40;21.10;86.40
40077;DHT22;25777;47.824;18.982;2023-08-31T16:20:28;21.20;85.90
40077;DHT22;25777;47.824;18.982;2023-08-31T16:22:54;21.00;89.50
40077;DHT22;25777;47.824;18.982;2023-08-31T16:25:25;20.80;88.30
40077;DHT22;25777;47.824;18.982;2023-08-31T16:27:50;20.70;89.70
40077;DHT22;25777;47.824;18.982;2023-08-31T16:30:18;20.70;88.30
40077;DHT22;25777;47.824;18.982;2023-08-31T16:32:47;20.60;88.80
40077;DHT22;25777;47.824;18.982;2023-08-31T16:35:14;20.50;88.40
40077;DHT22;25777;47.824;18.982;2023-08-31T16:37:41;20.30;88.50
40077;DHT22;25777;47.824;18.982;2023-08-31T16:40:14;20.30;90.80
40077;DHT22;25777;47.824;18.982;2023-08-31T16:42:43;20.20;91.50
40077;DHT22;25777;47.824;18.982;2023-08-31T16:45:16;20.20;91.50
40077;DHT22;25777;47.824;18.982;2023-08-31T16:47:42;20.00;92.80
40077;DHT22;25777;47.824;18.982;2023-08-31T16:50:37;19.90;93.20
40077;DHT22;25777;47.824;18.982;2023-08-31T16:53:04;19.80;92.90
40077;DHT22;25777;47.824;18.982;2023-08-31T16:55:31;19.80;93.20
40077;DHT22;25777;47.824;18.982;2023-08-31T16:57:57;19.60;93.40
40077;DHT22;25777;47.824;18.982;2023-08-31T17:00:31;19.70;93.30
40077;DHT22;25777;47.824;18.982;2023-08-31T17:03:10;19.40;94.20
40077;DHT22;25777;47.824;18.982;2023-08-31T17:05:37;19.30;94.90
40077;DHT22;25777;47.824;18.982;2023-08-31T17:08:03;19.20;95.20
40077;DHT22;25777;47.824;18.982;2023-08-31T17:10:32;19.00;96.20
40077;DHT22;25777;47.824;18.982;2023-08-31T17:12:58;18.80;96.80
40077;DHT22;25777;47.824;18.982;2023-08-31T17:15:24;18.80;96.90
40077;DHT22;25777;47.824;18.982;2023-08-31T17:18:14;18.70;97.10
40077;DHT22;25777;47.824;18.982;2023-08-31T17:20:39;18.50;97.50
40077;DHT22;25777;47.824;18.982;2023-08-31T17:23:09;18.30;98.90
40077;DHT22;25777;47.824;18.982;2023-08-31T17:25:51;18.10;99.90
40077;DHT22;25777;47.824;18.982;2023-08-31T17:28:20;18.00;99.90
40077;DHT22;25777;47.824;18.982;2023-08-31T17:30:46;17.90;99.90
40077;DHT22;25777;47.824;18.982;2023-08-31T17:33:13;17.90;99.90
40077;DHT22;25777;47.824;18.982;2023-08-31T17:35:43;17.70;99.90
40077;DHT22;25777;47.824;18.982;2023-08-31T17:38:09;17.50;99.90
40077;DHT22;25777;47.824;18.982;2023-08-31T17:40:39;17.60;99.90
40077;DHT22;25777;47.824;18.982;2023-08-31T17:43:20;17.50;99.90
40077;DHT22;25777;47.824;18.982;2023-08-31T17:45:52;17.40;99.90
40077;DHT22;25777;47.824;18.982;2023-08-31T17:48:18;17.10;99.90
40077;DHT22;25777;47.824;18.982;2023-08-31T17:50:49;16.70;99.90
40077;DHT22;25777;47.824;18.982;2023-08-31T17:53:18;16.90;99.90
40077;DHT22;25777;47.824;18.982;2023-08-31T17:55:45;17.10;99.90
40077;DHT22;25777;47.824;18.982;2023-08-31T17:58:22;17.00;99.90
40077;DHT22;25777;47.824;18.982;2023-08-31T18:00:52;17.00;99.90
40077;DHT22;25777;47.824;18.982;2023-08-31T18:03:18;16.90;99.90
40077;DHT22;25777;47.824;18.982;2023-08-31T18:05:48;16.80;99.90
40077;DHT22;25777;47.824;18.982;2023-08-31T18:08:18;16.70;99.90
40077;DHT22;25777;47.824;18.982;2023-08-31T18:10:47;16.70;99.90
40077;DHT22;25777;47.824;18.982;2023-08-31T18:13:14;16.60;99.90
40077;DHT22;25777;47.824;18.982;2023-08-31T18:16:00;16.50;99.90
40077;DHT22;25777;47.824;18.982;2023-08-31T18:18:26;16.70;99.90
40077;DHT22;25777;47.824;18.982;2023-08-31T18:21:01;16.90;99.90
40077;DHT22;25777;47.824;18.982;2023-08-31T18:23:36;16.80;99.90
40077;DHT22;25777;47.824;18.982;2023-08-31T18:26:02;16.80;99.90
40077;DHT22;25777;47.824;18.982;2023-08-31T18:28:29;16.60;99.90
40077;DHT22;25777;47.824;18.982;2023-08-31T18:30:58;16.60;99.90
40077;DHT22;25777;47.824;18.982;2023-08-31T18:33:31;16.50;99.90
40077;DHT22;25777;47.824;18.982;2023-08-31T18:35:59;16.20;99.90
40077;DHT22;25777;47.824;18.982;2023-08-31T18:38:27;16.10;99.90
40077;DHT22;25777;47.824;18.982;2023-08-31T18:40:54;15.90;99.90
40077;DHT22;25777;47.824;18.982;2023-08-31T18:43:22;15.70;99.90
40077;DHT22;25777;47.824;18.982;2023-08-31T18:45:52;15.70;99.90
40077;DHT22;25777;47.824;18.982;2023-08-31T18:48:19;15.80;99.90
40077;DHT22;25777;47.824;18.982;2023-08-31T18:50:46;15.80;99.90
40077;DHT22;25777;47.824;18.982;2023-08-31T18:53:16;15.70;99.90
40077;DHT22;25777;47.824;18.982;2023-08-31T18:55:44;15.90;99.90
40077;DHT22;25777;47.824;18.982;2023-08-31T18:58:10;16.20;99.90
40077;DHT22;25777;47.824;18.982;2023-08-31T19:00:38;16.30;99.90
40077;DHT22;25777;47.824;18.982;2023-08-31T19:03:04;16.10;99.90
40077;DHT22;25777;47.824;18.982;2023-08-31T19:05:30;15.80;99.90
40077;DHT22;25777;47.824;18.982;2023-08-31T19:08:15;15.80;99.90
40077;DHT22;25777;47.824;18.982;2023-08-31T19:10:48;16.00;99.90
40077;DHT22;25777;47.824;18.982;2023-08-31T19:13:28;16.10;99.90
40077;DHT22;25777;47.824;18.982;2023-08-31T19:16:00;16.30;99.90
40077;DHT22;25777;47.824;18.982;2023-08-31T19:18:30;16.30;99.90
40077;DHT22;25777;47.824;18.982;2023-08-31T19:21:04;16.30;99.90
40077;DHT22;25777;47.824;18.982;2023-08-31T19:23:35;16.30;99.90
40077;DHT22;25777;47.824;18.982;2023-08-31T19:26:04;16.30;99.90
40077;DHT22;25777;47.824;18.982;2023-08-31T19:28:35;16.30;99.90
40077;DHT22;25777;47.824;18.982;2023-08-31T19:31:21;15.90;99.90
40077;DHT22;25777;47.824;18.982;2023-08-31T19:33:47;15.70;99.90
40077;DHT22;25777;47.824;18.982;2023-08-31T19:36:14;15.70;99.90
40077;DHT22;25777;47.824;18.982;2023-08-31T19:38:41;15.30;99.90
40077;DHT22;25777;47.824;18.982;2023-08-31T19:41:09;15.30;99.90
40077;DHT22;25777;47.824;18.982;2023-08-31T19:43:42;15.10;99.90
40077;DHT22;25777;47.824;18.982;2023-08-31T19:46:10;15.20;99.90
40077;DHT22;25777;47.824;18.982;2023-08-31T19:48:39;15.50;99.90
40077;DHT22;25777;47.824;18.982;2023-08-31T19:51:33;15.80;99.90
40077;DHT22;25777;47.824;18.982;2023-08-31T19:54:09;15.90;99.90
40077;DHT22;25777;47.824;18.982;2023-08-31T19:56:41;16.00;99.90
40077;DHT22;25777;47.824;18.982;2023-08-31T19:59:07;16.00;99.90
40077;DHT22;25777;47.824;18.982;2023-08-31T20:01:53;15.90;99.90
40077;DHT22;25777;47.824;18.982;2023-08-31T20:04:18;15.90;99.90
40077;DHT22;25777;47.824;18.982;2023-08-31T20:10:23;16.00;99.90
40077;DHT22;25777;47.824;18.982;2023-08-31T20:28:38;15.80;99.90
40077;DHT22;25777;47.824;18.982;2023-08-31T20:31:14;15.70;99.90
40077;DHT22;25777;47.824;18.982;2023-08-31T20:33:42;15.70;99.90